createdAt,value
2023-05-18T00:01:00.378Z,102077.41
2023-05-18T00:03:33.516Z,102109.28
2023-05-18T00:06:07.397Z,102099.53
2023-05-18T00:08:38.759Z,102110.94
2023-05-18T00:11:10.257Z,102105.59
2023-05-18T00:13:41.625Z,102103.78
2023-05-18T00:16:15.660Z,102105.50
2023-05-18T00:18:47.362Z,102103.72
2023-05-18T00:21:18.696Z,102103.66
2023-05-18T00:23:50.365Z,102110.72
2023-05-18T00:26:22.016Z,102108.91
2023-05-18T00:28:53.425Z,102093.81
2023-05-18T00:31:24.768Z,102112.47
2023-05-18T00:33:56.123Z,102100.91
2023-05-18T00:36:27.457Z,102107.16
2023-05-18T00:38:59.433Z,102103.56
2023-05-18T00:41:31.178Z,102088.50
2023-05-18T00:44:04.580Z,102116.13
2023-05-18T00:46:36.379Z,102116.19
2023-05-18T00:49:07.805Z,102115.28
2023-05-18T00:51:40.658Z,102118.81
2023-05-18T00:54:12.223Z,102125.91
2023-05-18T00:56:46.199Z,102115.28
2023-05-18T00:59:18.570Z,102122.34
2023-05-18T01:01:51.391Z,102113.53
2023-05-18T01:04:24.730Z,102118.88
2023-05-18T01:06:56.536Z,102129.50
2023-05-18T01:09:27.911Z,102122.47
2023-05-18T01:12:24.826Z,102126.00
2023-05-18T01:15:08.013Z,102120.72
2023-05-18T01:18:04.574Z,102126.00
2023-05-18T01:20:39.283Z,102124.19
2023-05-18T01:23:25.917Z,102124.22
2023-05-18T01:26:04.975Z,102124.22
2023-05-18T01:28:36.399Z,102126.88
2023-05-18T01:31:08.118Z,102125.09
2023-05-18T01:33:39.534Z,102117.94
2023-05-18T01:36:11.459Z,102133.00
2023-05-18T01:38:44.268Z,102125.94
2023-05-18T01:41:24.544Z,102120.63
2023-05-18T01:44:21.956Z,102130.41
2023-05-18T01:47:01.253Z,102122.44
2023-05-18T01:49:41.200Z,102126.84
2023-05-18T01:52:37.417Z,102133.91
2023-05-18T01:55:10.630Z,102123.34
2023-05-18T01:57:44.405Z,102134.81
2023-05-18T02:00:17.479Z,102117.03
2023-05-18T02:02:49.370Z,102106.44
2023-05-18T02:05:20.909Z,102118.88
2023-05-18T02:07:52.392Z,102126.91
2023-05-18T02:10:23.868Z,102128.69
2023-05-18T02:12:55.279Z,102106.47
2023-05-18T02:15:26.602Z,102118.97
2023-05-18T02:17:58.167Z,102121.59
2023-05-18T02:20:33.323Z,102122.44
2023-05-18T02:23:04.686Z,102127.72
2023-05-18T02:25:37.098Z,102132.97
2023-05-18T02:28:08.517Z,102109.94
2023-05-18T02:30:39.896Z,102129.53
2023-05-18T02:33:11.315Z,102132.22
2023-05-18T02:35:42.655Z,102136.66
2023-05-18T02:38:13.978Z,102133.13
2023-05-18T02:40:45.320Z,102135.78
2023-05-18T02:43:16.719Z,102136.63
2023-05-18T02:45:48.194Z,102143.63
2023-05-18T02:48:19.527Z,102137.44
2023-05-18T02:50:51.173Z,102140.06
2023-05-18T02:53:22.951Z,102140.00
2023-05-18T02:55:57.088Z,102142.69
2023-05-18T02:58:28.632Z,102136.56
2023-05-18T03:01:00.382Z,102125.06
2023-05-18T03:03:31.810Z,102140.22
2023-05-18T03:06:04.099Z,102136.66
2023-05-18T03:08:37.110Z,102132.16
2023-05-18T03:11:08.487Z,102137.47
2023-05-18T03:13:39.827Z,102140.16
2023-05-18T03:16:11.230Z,102145.44
2023-05-18T03:18:42.653Z,102136.59
2023-05-18T03:21:14.131Z,102139.25
2023-05-18T03:23:45.456Z,102142.81
2023-05-18T03:26:16.963Z,102143.63
2023-05-18T03:28:48.268Z,102146.22
2023-05-18T03:31:19.725Z,102147.06
2023-05-18T03:33:51.158Z,102147.06
2023-05-18T03:36:22.660Z,102136.44
2023-05-18T03:38:54.245Z,102144.50
2023-05-18T03:41:25.644Z,102153.34
2023-05-18T03:43:57.205Z,102153.31
2023-05-18T03:46:28.580Z,102155.94
2023-05-18T03:48:59.927Z,102133.66
2023-05-18T03:51:31.761Z,102134.56
2023-05-18T03:54:03.122Z,102161.19
2023-05-18T03:56:34.436Z,102167.38
2023-05-18T03:59:06.494Z,102166.50
2023-05-18T04:01:38.222Z,102151.41
2023-05-18T04:04:17.780Z,102157.66
2023-05-18T04:06:51.492Z,102157.78
2023-05-18T04:09:23.826Z,102163.09
2023-05-18T04:11:55.411Z,102164.00
2023-05-18T04:14:28.059Z,102167.59
2023-05-18T04:17:04.910Z,102151.63
2023-05-18T04:19:37.816Z,102168.56
2023-05-18T04:22:09.758Z,102171.25
2023-05-18T04:24:45.717Z,102180.13
2023-05-18T04:27:17.087Z,102189.00
2023-05-18T04:29:49.157Z,102181.94
2023-05-18T04:32:20.717Z,102153.50
2023-05-18T04:34:52.205Z,102177.50
2023-05-18T04:37:23.678Z,102190.84
2023-05-18T04:39:55.001Z,102194.41
2023-05-18T04:42:27.516Z,102176.66
2023-05-18T04:45:00.135Z,102190.91
2023-05-18T04:47:32.750Z,102166.91
2023-05-18T04:50:05.794Z,102201.63
2023-05-18T04:52:37.093Z,102206.09
2023-05-18T04:55:10.812Z,102203.50
2023-05-18T04:57:42.447Z,102217.66
2023-05-18T05:00:14.945Z,102210.66
2023-05-18T05:02:46.397Z,102218.63
2023-05-18T05:05:18.804Z,102216.00
2023-05-18T05:07:51.588Z,102208.94
2023-05-18T05:10:23.344Z,102201.84
2023-05-18T05:12:54.710Z,102217.94
2023-05-18T05:15:26.223Z,102183.34
2023-05-18T05:17:58.465Z,102211.84
2023-05-18T05:20:29.848Z,102221.69
2023-05-18T05:23:01.193Z,102225.28
2023-05-18T05:25:32.902Z,102221.78
2023-05-18T05:28:04.507Z,102227.97
2023-05-18T05:30:36.212Z,102230.69
2023-05-18T05:33:07.735Z,102225.53
2023-05-18T05:35:39.137Z,102228.25
2023-05-18T05:38:10.664Z,102228.31
2023-05-18T05:40:42.090Z,102224.84
2023-05-18T05:43:13.432Z,102222.19
2023-05-18T05:45:44.771Z,102234.59
2023-05-18T05:48:16.256Z,102229.31
2023-05-18T05:50:47.670Z,102240.91
2023-05-18T05:53:19.801Z,102208.94
2023-05-18T05:55:51.210Z,102239.13
2023-05-18T05:58:22.652Z,102225.78
2023-05-18T06:00:54.465Z,102246.22
2023-05-18T06:03:26.452Z,102250.66
2023-05-18T06:05:58.030Z,102226.72
2023-05-18T06:08:29.421Z,102235.66
2023-05-18T06:11:00.924Z,102250.84
2023-05-18T06:13:32.259Z,102242.88
2023-05-18T06:16:03.794Z,102252.66
2023-05-18T06:18:35.351Z,102251.78
2023-05-18T06:21:06.731Z,102242.84
2023-05-18T06:23:41.798Z,102255.28
2023-05-18T06:26:13.494Z,102257.03
2023-05-18T06:28:44.941Z,102262.31
2023-05-18T06:31:17.014Z,102245.47
2023-05-18T06:33:48.388Z,102258.84
2023-05-18T06:36:19.907Z,102268.72
2023-05-18T06:38:51.604Z,102268.81
2023-05-18T06:41:23.008Z,102273.28
2023-05-18T06:43:54.408Z,102275.09
2023-05-18T06:46:26.583Z,102252.88
2023-05-18T06:48:58.047Z,102280.38
2023-05-18T06:51:29.527Z,102262.63
2023-05-18T06:54:00.938Z,102274.19
2023-05-18T06:56:32.267Z,102259.09
2023-05-18T06:59:03.592Z,102277.75
2023-05-18T07:01:34.991Z,102277.75
2023-05-18T07:04:06.734Z,102277.75
2023-05-18T07:06:38.317Z,102277.81
2023-05-18T07:09:09.750Z,102272.50
2023-05-18T07:11:41.125Z,102279.63
2023-05-18T07:14:12.544Z,102281.38
2023-05-18T07:16:47.352Z,102259.22
2023-05-18T07:19:18.832Z,102288.53
2023-05-18T07:21:50.243Z,102278.78
2023-05-18T07:24:21.565Z,102277.84
2023-05-18T07:26:52.961Z,102253.88
2023-05-18T07:29:24.546Z,102273.31
2023-05-18T07:31:55.952Z,102271.44
2023-05-18T07:34:27.334Z,102277.59
2023-05-18T07:36:59.125Z,102281.25
2023-05-18T07:39:30.545Z,102279.44
2023-05-18T07:42:01.992Z,102291.03
2023-05-18T07:44:33.374Z,102284.78
2023-05-18T07:47:05.050Z,102286.44
2023-05-18T07:49:36.443Z,102282.88
2023-05-18T07:52:08.297Z,102288.97
2023-05-18T07:54:39.641Z,102272.84
2023-05-18T07:57:11.046Z,102298.44
2023-05-18T07:59:42.618Z,102291.97
2023-05-18T08:02:20.516Z,102287.16
2023-05-18T08:04:52.050Z,102295.59
2023-05-18T08:07:26.337Z,102295.13
2023-05-18T08:09:57.840Z,102289.94
2023-05-18T08:12:29.953Z,102277.09
2023-05-18T08:15:01.390Z,102289.94
2023-05-18T08:17:32.712Z,102282.41
2023-05-18T08:20:05.964Z,102278.50
2023-05-18T08:22:37.396Z,102276.56
2023-05-18T08:25:10.180Z,102281.44
2023-05-18T08:27:41.563Z,102293.22
2023-05-18T08:30:13.526Z,102287.00
2023-05-18T08:32:45.005Z,102281.91
2023-05-18T08:35:16.410Z,102279.28
2023-05-18T08:37:49.984Z,102276.63
2023-05-18T08:40:21.498Z,102252.66
2023-05-18T08:43:18.993Z,102276.28
2023-05-18T08:45:58.704Z,102257.41
2023-05-18T08:48:32.580Z,102271.53
2023-05-18T08:51:06.576Z,102273.84
2023-05-18T08:53:38.134Z,102275.38
2023-05-18T08:56:11.282Z,102284.91
2023-05-18T08:58:48.884Z,102277.72
2023-05-18T09:01:20.699Z,102280.69
2023-05-18T09:03:53.395Z,102264.00
2023-05-18T09:06:26.129Z,102262.97
2023-05-18T09:08:58.288Z,102280.66
2023-05-18T09:11:31.985Z,102267.56
2023-05-18T09:14:03.614Z,102272.66
2023-05-18T09:16:35.596Z,102272.28
2023-05-18T09:19:07.156Z,102263.66
2023-05-18T09:21:38.850Z,102262.84
2023-05-18T09:24:11.592Z,102260.31
2023-05-18T09:26:43.123Z,102257.94
2023-05-18T09:29:19.587Z,102262.69
2023-05-18T09:31:51.882Z,102257.75
2023-05-18T09:34:24.441Z,102253.56
2023-05-18T09:36:57.718Z,102248.31
2023-05-18T09:39:29.040Z,102250.81
2023-05-18T09:42:03.585Z,102250.97
2023-05-18T09:44:35.148Z,102243.13
2023-05-18T09:47:10.512Z,102252.97
2023-05-18T09:49:41.948Z,102261.81
2023-05-18T09:52:13.457Z,102250.34
2023-05-18T09:54:57.494Z,102240.69
2023-05-18T09:57:28.929Z,102253.19
2023-05-18T10:00:10.585Z,102235.09
2023-05-18T10:02:49.022Z,102243.50
2023-05-18T10:05:36.320Z,102249.53
2023-05-18T10:08:08.019Z,102247.19
2023-05-18T10:10:42.618Z,102242.09
2023-05-18T10:13:17.975Z,102225.28
2023-05-18T10:15:55.367Z,102235.06
2023-05-18T10:18:28.738Z,102226.09
2023-05-18T10:21:02.582Z,102236.44
2023-05-18T10:23:35.667Z,102237.16
2023-05-18T10:26:09.567Z,102228.97
2023-05-18T10:28:50.038Z,102223.31
2023-05-18T10:31:23.312Z,102203.09
2023-05-18T10:33:55.835Z,102221.81
2023-05-18T10:36:30.066Z,102224.53
2023-05-18T10:39:03.174Z,102231.78
2023-05-18T10:41:37.713Z,102198.97
2023-05-18T10:44:10.168Z,102211.09
2023-05-18T10:46:42.649Z,102206.44
2023-05-18T10:49:17.320Z,102217.22
2023-05-18T10:51:49.655Z,102228.91
2023-05-18T10:54:23.435Z,102229.25
2023-05-18T10:56:55.251Z,102224.94
2023-05-18T10:59:27.650Z,102233.56
2023-05-18T11:02:01.461Z,102213.53
2023-05-18T11:04:33.082Z,102222.78
2023-05-18T11:07:13.878Z,102189.63
2023-05-18T11:09:45.304Z,102219.47
2023-05-18T11:12:20.145Z,102216.09
2023-05-18T11:14:53.250Z,102218.69
2023-05-18T11:17:26.039Z,102214.53
2023-05-18T11:20:04.288Z,102206.91
2023-05-18T11:22:57.286Z,102207.03
2023-05-18T11:25:28.814Z,102208.06
2023-05-18T11:28:04.551Z,102207.59
2023-05-18T11:30:42.077Z,102225.06
2023-05-18T11:33:27.512Z,102206.50
2023-05-18T11:36:12.161Z,102202.19
2023-05-18T11:39:22.951Z,102202.59
2023-05-18T11:42:08.993Z,102196.13
2023-05-18T11:44:40.975Z,102193.69
2023-05-18T11:47:12.487Z,102195.66
2023-05-18T11:49:46.310Z,102193.56
2023-05-18T11:52:25.151Z,102168.78
2023-05-18T11:55:00.763Z,102189.25
2023-05-18T11:57:35.273Z,102192.97
2023-05-18T12:00:10.313Z,102194.03
2023-05-18T12:02:48.776Z,102189.06
2023-05-18T12:05:21.207Z,102192.84
2023-05-18T12:07:54.190Z,102185.97
2023-05-18T12:10:25.835Z,102178.13
2023-05-18T12:12:58.789Z,102195.91
2023-05-18T12:15:30.403Z,102183.97
2023-05-18T12:18:01.758Z,102192.31
2023-05-18T12:20:35.488Z,102186.13
2023-05-18T12:23:06.812Z,102160.31
2023-05-18T12:25:38.429Z,102177.72
2023-05-18T12:28:09.856Z,102180.84
2023-05-18T12:30:43.876Z,102162.94
2023-05-18T12:33:15.279Z,102178.53
2023-05-18T12:35:46.622Z,102172.63
2023-05-18T12:38:18.148Z,102141.56
2023-05-18T12:40:52.692Z,102170.84
2023-05-18T12:43:26.543Z,102157.38
2023-05-18T12:46:01.516Z,102158.56
2023-05-18T12:48:37.761Z,102172.06
2023-05-18T12:51:18.041Z,102166.56
2023-05-18T12:53:50.571Z,102161.44
2023-05-18T12:56:25.190Z,102149.59
2023-05-18T12:59:02.926Z,102152.31
2023-05-18T13:01:41.758Z,102148.97
2023-05-18T13:04:13.519Z,102151.66
2023-05-18T13:06:45.086Z,102149.44
2023-05-18T13:09:16.703Z,102138.94
2023-05-18T13:12:00.242Z,102137.09
2023-05-18T13:14:38.578Z,102146.59
2023-05-18T13:17:10.065Z,102129.97
2023-05-18T13:19:41.405Z,102131.56
2023-05-18T13:22:15.508Z,102113.97
2023-05-18T13:24:46.982Z,102119.22
2023-05-18T13:27:18.280Z,102129.63
2023-05-18T13:29:49.589Z,102130.94
2023-05-18T13:32:20.913Z,102134.81
2023-05-18T13:34:52.524Z,102094.13
2023-05-18T13:37:24.403Z,102128.72
2023-05-18T13:39:55.939Z,102111.28
2023-05-18T13:42:27.402Z,102119.28
2023-05-18T13:44:58.754Z,102126.06
2023-05-18T13:47:30.112Z,102117.09
2023-05-18T13:50:01.491Z,102122.78
2023-05-18T13:52:33.299Z,102128.66
2023-05-18T13:55:07.007Z,102112.69
2023-05-18T13:57:38.331Z,102121.22
2023-05-18T14:00:12.892Z,102104.97
2023-05-18T14:02:44.513Z,102109.25
2023-05-18T14:05:16.390Z,102111.97
2023-05-18T14:07:48.028Z,102103.31
2023-05-18T14:10:19.602Z,102112.91
2023-05-18T14:12:50.947Z,102112.91
2023-05-18T14:15:22.350Z,102107.44
2023-05-18T14:17:53.759Z,102109.78
2023-05-18T14:20:25.183Z,102102.41
2023-05-18T14:22:56.625Z,102107.97
2023-05-18T14:25:27.952Z,102112.72
2023-05-18T14:27:59.331Z,102111.38
2023-05-18T14:30:30.920Z,102094.56
2023-05-18T14:33:02.468Z,102082.22
2023-05-18T14:35:34.076Z,102101.44
2023-05-18T14:38:05.488Z,102098.22
2023-05-18T14:40:36.906Z,102101.41
2023-05-18T14:43:08.347Z,102102.69
2023-05-18T14:45:39.792Z,102101.97
2023-05-18T14:48:11.276Z,102095.09
2023-05-18T14:50:42.751Z,102094.47
2023-05-18T14:53:14.284Z,102105.06
2023-05-18T14:55:45.835Z,102098.97
2023-05-18T14:58:17.140Z,102088.69
2023-05-18T15:00:48.459Z,102089.53
2023-05-18T15:03:19.872Z,102088.41
2023-05-18T15:05:51.361Z,102090.97
2023-05-18T15:08:22.707Z,102083.56
2023-05-18T15:10:54.360Z,102080.81
2023-05-18T15:13:25.749Z,102084.19
2023-05-18T15:15:57.580Z,102090.38
2023-05-18T15:18:28.921Z,102070.84
2023-05-18T15:21:00.412Z,102079.53
2023-05-18T15:23:32.134Z,102080.72
2023-05-18T15:26:03.800Z,102055.34
2023-05-18T15:28:35.216Z,102059.22
2023-05-18T15:31:06.539Z,102071.66
2023-05-18T15:33:42.022Z,102071.50
2023-05-18T15:36:13.393Z,102066.28
2023-05-18T15:38:44.838Z,102058.28
2023-05-18T15:41:16.255Z,102059.03
2023-05-18T15:43:47.765Z,102063.41
2023-05-18T15:46:19.174Z,102038.06
2023-05-18T15:48:50.941Z,102066.53
2023-05-18T15:51:22.318Z,102061.66
2023-05-18T15:53:53.845Z,102061.06
2023-05-18T15:56:25.689Z,102048.72
2023-05-18T15:58:57.079Z,102052.84
2023-05-18T16:01:28.549Z,102047.78
2023-05-18T16:04:00.194Z,102049.06
2023-05-18T16:06:33.216Z,102045.84
2023-05-18T16:09:04.598Z,102049.69
2023-05-18T16:11:36.025Z,102049.63
2023-05-18T16:14:07.472Z,102045.22
2023-05-18T16:16:38.859Z,102047.75
2023-05-18T16:19:10.424Z,102050.34
2023-05-18T16:21:41.785Z,102050.41
2023-05-18T16:24:13.077Z,102054.19
2023-05-18T16:26:44.387Z,102052.78
2023-05-18T16:29:15.733Z,102049.63
2023-05-18T16:31:47.329Z,102043.50
2023-05-18T16:34:18.741Z,102049.91
2023-05-18T16:36:50.400Z,102041.03
2023-05-18T16:39:21.717Z,102043.66
2023-05-18T16:41:53.024Z,102049.91
2023-05-18T16:44:24.463Z,102042.84
2023-05-18T16:46:56.133Z,102046.41
2023-05-18T16:49:27.551Z,102045.56
2023-05-18T16:51:58.893Z,102017.16
2023-05-18T16:54:30.227Z,102045.38
2023-05-18T16:57:01.893Z,102040.13
2023-05-18T16:59:34.449Z,102036.34
2023-05-18T17:02:06.412Z,102037.06
2023-05-18T17:04:40.580Z,102031.19
2023-05-18T17:07:12.613Z,102034.66
2023-05-18T17:09:44.428Z,102041.75
2023-05-18T17:12:15.893Z,102053.44
2023-05-18T17:14:47.720Z,102030.00
2023-05-18T17:17:20.354Z,102046.81
2023-05-18T17:19:51.803Z,102035.47
2023-05-18T17:22:23.138Z,102052.28
2023-05-18T17:24:54.448Z,102059.41
2023-05-18T17:27:26.182Z,102060.44
2023-05-18T17:29:57.814Z,102051.66
2023-05-18T17:32:29.194Z,102056.22
2023-05-18T17:35:01.400Z,102057.16
2023-05-18T17:37:32.930Z,102051.91
2023-05-18T17:40:05.134Z,102052.75
2023-05-18T17:42:36.910Z,102051.84
2023-05-18T17:45:09.021Z,102039.44
2023-05-18T17:47:41.627Z,102049.16
2023-05-18T17:50:14.021Z,102046.53
2023-05-18T17:52:45.495Z,102051.03
2023-05-18T17:55:17.060Z,102054.69
2023-05-18T17:57:48.523Z,102045.75
2023-05-18T18:00:20.377Z,102045.75
2023-05-18T18:02:51.770Z,102046.81
2023-05-18T18:05:23.180Z,102051.34
2023-05-18T18:07:54.515Z,102044.28
2023-05-18T18:10:26.986Z,102040.81
2023-05-18T18:12:58.674Z,102052.41
2023-05-18T18:15:30.253Z,102043.69
2023-05-18T18:18:01.701Z,102033.16
2023-05-18T18:20:36.490Z,102046.47
2023-05-18T18:23:07.895Z,102034.34
2023-05-18T18:25:39.464Z,102037.16
2023-05-18T18:28:14.907Z,102041.69
2023-05-18T18:30:47.091Z,102049.78
2023-05-18T18:33:19.779Z,102062.44
2023-05-18T18:35:52.176Z,102044.88
2023-05-18T18:38:23.885Z,102062.75
2023-05-18T18:41:01.240Z,102050.53
2023-05-18T18:43:35.019Z,102062.31
2023-05-18T18:46:06.512Z,102050.03
2023-05-18T18:48:37.914Z,102071.47
2023-05-18T18:51:09.238Z,102072.53
2023-05-18T18:53:40.553Z,102067.38
2023-05-18T18:56:11.926Z,102062.13
2023-05-18T18:58:43.344Z,102072.03
2023-05-18T19:01:14.808Z,102058.03
2023-05-18T19:03:46.196Z,102083.88
2023-05-18T19:06:17.605Z,102086.63
2023-05-18T19:08:48.994Z,102080.53
2023-05-18T19:11:21.990Z,102085.94
2023-05-18T19:13:53.589Z,102089.59
2023-05-18T19:16:25.852Z,102087.03
2023-05-18T19:18:57.222Z,102085.34
2023-05-18T19:21:29.058Z,102093.41
2023-05-18T19:24:00.512Z,102087.25
2023-05-18T19:26:32.478Z,102091.78
2023-05-18T19:29:04.306Z,102086.59
2023-05-18T19:31:36.982Z,102108.84
2023-05-18T19:34:08.340Z,102104.47
2023-05-18T19:36:39.866Z,102117.84
2023-05-18T19:39:11.199Z,102110.75
2023-05-18T19:41:43.503Z,102091.34
2023-05-18T19:44:14.839Z,102114.41
2023-05-18T19:46:48.714Z,102118.88
2023-05-18T19:49:20.052Z,102123.38
2023-05-18T19:51:51.389Z,102121.63
2023-05-18T19:54:22.801Z,102122.53
2023-05-18T19:56:55.737Z,102104.88
2023-05-18T19:59:29.331Z,102124.38
2023-05-18T20:02:00.861Z,102096.03
2023-05-18T20:04:33.709Z,102123.53
2023-05-18T20:07:05.416Z,102110.25
2023-05-18T20:09:36.935Z,102121.75
2023-05-18T20:12:08.490Z,102113.78
2023-05-18T20:14:39.937Z,102121.78
2023-05-18T20:17:11.251Z,102127.09
2023-05-18T20:19:50.310Z,102127.09
2023-05-18T20:22:21.708Z,102132.41
2023-05-18T20:24:54.402Z,102133.31
2023-05-18T20:27:26.182Z,102135.97
2023-05-18T20:29:57.535Z,102127.06
2023-05-18T20:32:29.416Z,102125.28
2023-05-18T20:35:01.232Z,102137.69
2023-05-18T20:37:34.473Z,102140.34
2023-05-18T20:40:09.637Z,102144.75
2023-05-18T20:42:41.149Z,102150.09
2023-05-18T20:45:12.571Z,102158.94
2023-05-18T20:47:43.962Z,102152.75
2023-05-18T20:50:15.340Z,102148.28
2023-05-18T20:52:47.511Z,102145.63
2023-05-18T20:55:19.779Z,102137.63
2023-05-18T20:57:51.311Z,102161.56
2023-05-18T21:00:22.755Z,102138.47
2023-05-18T21:02:54.299Z,102122.50
2023-05-18T21:05:25.855Z,102128.72
2023-05-18T21:07:58.158Z,102144.66
2023-05-18T21:10:29.675Z,102120.69
2023-05-18T21:13:01.292Z,102140.19
2023-05-18T21:15:36.422Z,102128.66
2023-05-18T21:18:07.871Z,102118.88
2023-05-18T21:20:39.382Z,102143.69
2023-05-18T21:23:10.819Z,102141.91
2023-05-18T21:25:42.144Z,102144.56
2023-05-18T21:28:13.456Z,102144.56
2023-05-18T21:30:45.777Z,102125.00
2023-05-18T21:33:17.175Z,102146.31
2023-05-18T21:35:48.696Z,102149.84
2023-05-18T21:38:20.094Z,102144.50
2023-05-18T21:40:51.546Z,102149.78
2023-05-18T21:43:23.535Z,102148.00
2023-05-18T21:45:55.274Z,102132.00
2023-05-18T21:48:26.678Z,102146.19
2023-05-18T21:50:58.053Z,102143.53
2023-05-18T21:53:29.665Z,102148.81
2023-05-18T21:56:01.078Z,102133.69
2023-05-18T21:58:32.504Z,102144.34
2023-05-18T22:01:03.886Z,102142.53
2023-05-18T22:03:35.292Z,102126.47
2023-05-18T22:06:06.747Z,102124.63
2023-05-18T22:08:39.357Z,102140.53
2023-05-18T22:11:11.625Z,102128.09
2023-05-18T22:13:42.966Z,102136.91
2023-05-18T22:16:14.314Z,102130.69
2023-05-18T22:18:45.783Z,102150.19
2023-05-18T22:21:17.128Z,102151.94
2023-05-18T22:23:48.458Z,102143.06
2023-05-18T22:26:20.135Z,102149.25
2023-05-18T22:28:51.474Z,102136.81
2023-05-18T22:31:22.877Z,102133.25
2023-05-18T22:33:55.367Z,102134.13
2023-05-18T22:36:27.435Z,102146.50
2023-05-18T22:38:58.873Z,102136.72
2023-05-18T22:41:30.263Z,102143.78
2023-05-18T22:44:01.710Z,102143.75
2023-05-18T22:46:33.214Z,102129.50
2023-05-18T22:49:06.513Z,102130.28
2023-05-18T22:51:37.859Z,102141.81
2023-05-18T22:54:09.151Z,102131.13
2023-05-18T22:56:40.584Z,102142.63
2023-05-18T22:59:11.994Z,102144.34
2023-05-18T23:01:43.506Z,102123.88
2023-05-18T23:04:17.937Z,102135.34
2023-05-18T23:06:50.701Z,102133.53
2023-05-18T23:09:22.104Z,102120.94
2023-05-18T23:11:55.512Z,102123.59
2023-05-18T23:14:32.248Z,102121.72
2023-05-18T23:17:04.678Z,102132.28
2023-05-18T23:19:36.157Z,102135.81
2023-05-18T23:22:07.509Z,102131.25
2023-05-18T23:24:38.816Z,102133.88
2023-05-18T23:27:11.188Z,102117.84
2023-05-18T23:29:42.735Z,102132.94
2023-05-18T23:32:14.132Z,102127.56
2023-05-18T23:34:45.776Z,102108.88
2023-05-18T23:37:18.500Z,102130.16
2023-05-18T23:39:53.733Z,102123.06
2023-05-18T23:42:25.523Z,102120.41
2023-05-18T23:44:57.290Z,102104.38
2023-05-18T23:47:28.859Z,102107.00
2023-05-18T23:50:00.414Z,102115.94
2023-05-18T23:52:33.593Z,102109.78
2023-05-18T23:55:07.613Z,102103.56
2023-05-18T23:57:39.271Z,102085.75
